createdAt,value
2023-03-04T00:00:45.771Z,21.47
2023-03-04T00:03:15.747Z,14.27
2023-03-04T00:05:43.469Z,21.30
2023-03-04T00:08:10.703Z,20.90
2023-03-04T00:10:38.027Z,20.97
2023-03-04T00:13:07.125Z,21.20
2023-03-04T00:15:34.429Z,21.33
2023-03-04T00:18:01.696Z,20.63
2023-03-04T00:20:29.226Z,20.37
2023-03-04T00:22:56.581Z,18.80
2023-03-04T00:25:24.922Z,19.00
2023-03-04T00:27:52.443Z,19.50
2023-03-04T00:30:20.754Z,19.43
2023-03-04T00:32:48.806Z,19.83
2023-03-04T00:35:16.144Z,20.77
2023-03-04T00:37:43.461Z,20.70
2023-03-04T00:40:11.199Z,20.70
2023-03-04T00:42:38.671Z,20.13
2023-03-04T00:45:06.409Z,19.73
2023-03-04T00:47:33.759Z,18.37
2023-03-04T00:50:01.209Z,21.10
2023-03-04T00:52:28.683Z,21.33
2023-03-04T00:54:55.955Z,20.03
2023-03-04T00:57:23.315Z,19.53
2023-03-04T00:59:51.162Z,20.97
2023-03-04T01:02:18.463Z,19.50
2023-03-04T01:04:45.767Z,19.87
2023-03-04T01:07:13.013Z,19.53
2023-03-04T01:09:40.514Z,19.90
2023-03-04T01:12:08.004Z,21.17
2023-03-04T01:14:35.400Z,21.33
2023-03-04T01:17:04.110Z,20.80
2023-03-04T01:19:33.033Z,21.77
2023-03-04T01:22:00.285Z,21.83
2023-03-04T01:24:29.945Z,20.57
2023-03-04T01:26:57.748Z,21.17
2023-03-04T01:29:25.119Z,22.53
2023-03-04T01:31:52.382Z,20.83
2023-03-04T01:34:20.922Z,20.00
2023-03-04T01:36:48.383Z,23.20
2023-03-04T01:39:20.886Z,22.67
2023-03-04T01:41:48.325Z,22.37
2023-03-04T01:44:15.773Z,21.57
2023-03-04T01:46:49.198Z,21.27
2023-03-04T01:49:20.034Z,19.20
2023-03-04T01:51:53.191Z,22.53
2023-03-04T01:54:24.294Z,23.77
2023-03-04T01:56:53.454Z,21.97
2023-03-04T01:59:22.689Z,21.43
2023-03-04T02:01:55.609Z,22.17
2023-03-04T02:04:25.705Z,21.70
2023-03-04T02:06:53.903Z,21.00
2023-03-04T02:09:25.210Z,19.87
2023-03-04T02:11:53.625Z,18.43
2023-03-04T02:14:21.197Z,20.93
2023-03-04T02:16:49.745Z,18.00
2023-03-04T02:19:25.911Z,21.43
2023-03-04T02:21:53.250Z,16.83
2023-03-04T02:24:23.491Z,19.47
2023-03-04T02:26:50.800Z,19.77
2023-03-04T02:29:18.667Z,19.37
2023-03-04T02:31:47.689Z,20.67
2023-03-04T02:34:20.078Z,20.97
2023-03-04T02:36:48.333Z,20.17
2023-03-04T02:39:23.450Z,20.53
2023-03-04T02:41:52.254Z,19.37
2023-03-04T02:44:27.445Z,20.10
2023-03-04T02:46:55.538Z,20.50
2023-03-04T02:49:24.267Z,21.33
2023-03-04T02:51:54.807Z,20.57
2023-03-04T02:54:23.716Z,22.90
2023-03-04T02:56:52.859Z,22.77
2023-03-04T02:59:23.665Z,23.90
2023-03-04T03:01:52.075Z,24.33
2023-03-04T03:04:20.775Z,23.80
2023-03-04T03:06:49.649Z,22.80
2023-03-04T03:09:19.107Z,24.13
2023-03-04T03:11:46.751Z,24.17
2023-03-04T03:14:15.653Z,24.93
2023-03-04T03:16:43.755Z,23.13
2023-03-04T03:19:11.905Z,24.27
2023-03-04T03:21:40.200Z,22.97
2023-03-04T03:24:08.621Z,24.37
2023-03-04T03:26:36.299Z,23.70
2023-03-04T03:29:03.849Z,24.50
2023-03-04T03:31:31.262Z,24.63
2023-03-04T03:33:58.652Z,23.60
2023-03-04T03:36:27.949Z,23.67
2023-03-04T03:38:55.328Z,23.90
2023-03-04T03:41:22.667Z,23.47
2023-03-04T03:43:51.119Z,23.87
2023-03-04T03:46:19.843Z,23.67
2023-03-04T03:48:47.561Z,24.60
2023-03-04T03:51:14.882Z,24.57
2023-03-04T03:53:43.588Z,23.57
2023-03-04T03:56:10.900Z,24.43
2023-03-04T03:58:39.257Z,22.77
2023-03-04T04:01:06.961Z,24.40
2023-03-04T04:03:34.414Z,24.33
2023-03-04T04:06:02.048Z,25.47
2023-03-04T04:08:29.412Z,22.80
2023-03-04T04:10:56.942Z,23.50
2023-03-04T04:13:24.204Z,25.13
2023-03-04T04:15:54.718Z,25.10
2023-03-04T04:18:22.017Z,26.23
2023-03-04T04:20:49.281Z,23.90
2023-03-04T04:23:16.718Z,24.03
2023-03-04T04:25:43.963Z,23.73
2023-03-04T04:28:11.427Z,23.37
2023-03-04T04:30:38.864Z,25.63
2023-03-04T04:33:06.155Z,22.10
2023-03-04T04:35:34.183Z,22.57
2023-03-04T04:38:01.886Z,24.37
2023-03-04T04:40:32.358Z,23.60
2023-03-04T04:43:01.647Z,24.00
2023-03-04T04:45:33.520Z,24.07
2023-03-04T04:48:03.036Z,22.93
2023-03-04T04:50:33.015Z,23.23
2023-03-04T04:53:00.537Z,22.60
2023-03-04T04:55:28.361Z,24.40
2023-03-04T04:57:55.742Z,21.77
2023-03-04T05:00:32.224Z,22.27
2023-03-04T05:02:59.577Z,23.23
2023-03-04T05:05:27.120Z,22.30
2023-03-04T05:07:54.389Z,24.60
2023-03-04T05:10:22.018Z,22.20
2023-03-04T05:12:49.986Z,23.53
2023-03-04T05:15:17.285Z,23.43
2023-03-04T05:17:44.645Z,22.90
2023-03-04T05:20:12.594Z,22.67
2023-03-04T05:22:40.063Z,22.07
2023-03-04T05:25:07.542Z,22.10
2023-03-04T05:27:35.583Z,20.70
2023-03-04T05:30:02.949Z,21.77
2023-03-04T05:32:30.293Z,20.80
2023-03-04T05:34:57.699Z,21.67
2023-03-04T05:37:24.983Z,20.90
2023-03-04T05:39:52.256Z,21.83
2023-03-04T05:42:20.028Z,21.53
2023-03-04T05:44:47.383Z,21.27
2023-03-04T05:47:14.987Z,20.70
2023-03-04T05:49:42.726Z,20.47
2023-03-04T05:52:11.590Z,20.20
2023-03-04T05:54:40.015Z,20.10
2023-03-04T05:57:14.769Z,19.43
2023-03-04T05:59:43.083Z,20.57
2023-03-04T06:02:14.837Z,20.10
2023-03-04T06:04:45.087Z,20.40
2023-03-04T06:07:12.445Z,18.40
2023-03-04T06:09:39.739Z,20.67
2023-03-04T06:12:07.126Z,20.67
2023-03-04T06:14:34.425Z,19.80
2023-03-04T06:17:01.702Z,20.07
2023-03-04T06:19:29.056Z,20.13
2023-03-04T06:21:56.382Z,20.63
2023-03-04T06:24:23.719Z,18.47
2023-03-04T06:26:51.798Z,20.77
2023-03-04T06:29:19.165Z,18.83
2023-03-04T06:31:46.900Z,18.10
2023-03-04T06:34:14.239Z,20.53
2023-03-04T06:36:43.374Z,20.60
2023-03-04T06:39:10.813Z,21.40
2023-03-04T06:41:38.975Z,20.63
2023-03-04T06:44:06.576Z,20.27
2023-03-04T06:46:34.311Z,21.53
2023-03-04T06:49:02.381Z,21.03
2023-03-04T06:51:30.766Z,21.47
2023-03-04T06:53:58.606Z,20.23
2023-03-04T06:56:25.916Z,17.40
2023-03-04T06:58:53.444Z,19.40
2023-03-04T07:01:23.537Z,21.10
2023-03-04T07:03:54.501Z,19.80
2023-03-04T07:06:27.200Z,20.47
2023-03-04T07:08:54.956Z,20.67
2023-03-04T07:11:23.605Z,20.63
2023-03-04T07:13:51.328Z,20.07
2023-03-04T07:16:20.777Z,18.67
2023-03-04T07:18:48.441Z,21.67
2023-03-04T07:21:16.515Z,17.03
2023-03-04T07:23:44.582Z,18.70
2023-03-04T07:26:12.276Z,18.87
2023-03-04T07:28:39.584Z,20.33
2023-03-04T07:31:14.347Z,19.50
2023-03-04T07:33:41.808Z,19.67
2023-03-04T07:36:09.480Z,19.67
2023-03-04T07:38:36.868Z,19.07
2023-03-04T07:41:04.209Z,27.10
2023-03-04T07:43:31.674Z,23.27
2023-03-04T07:46:00.723Z,33.83
2023-03-04T07:48:28.691Z,19.50
2023-03-04T07:51:06.707Z,20.70
2023-03-04T07:53:35.989Z,20.43
2023-03-04T07:56:04.332Z,20.37
2023-03-04T07:58:33.980Z,20.73
2023-03-04T08:01:02.563Z,26.90
2023-03-04T08:03:29.992Z,21.13
2023-03-04T08:05:57.377Z,16.70
2023-03-04T08:08:24.670Z,19.50
2023-03-04T08:10:53.728Z,19.13
2023-03-04T08:13:21.103Z,17.67
2023-03-04T08:15:49.971Z,21.47
2023-03-04T08:18:17.875Z,17.40
2023-03-04T08:20:45.246Z,20.20
2023-03-04T08:23:14.576Z,14.87
2023-03-04T08:25:42.820Z,15.57
2023-03-04T08:28:14.394Z,15.93
2023-03-04T08:30:43.906Z,17.37
2023-03-04T08:33:13.671Z,15.30
2023-03-04T08:35:43.450Z,15.53
2023-03-04T08:38:11.016Z,16.30
2023-03-04T08:40:40.918Z,16.00
2023-03-04T08:43:10.553Z,16.43
2023-03-04T08:45:38.422Z,16.47
2023-03-04T08:48:05.744Z,16.57
2023-03-04T08:50:33.202Z,17.33
2023-03-04T08:53:00.833Z,16.47
2023-03-04T08:55:37.436Z,16.03
2023-03-04T08:58:12.681Z,16.53
2023-03-04T09:00:45.568Z,16.40
2023-03-04T09:03:13.476Z,21.17
2023-03-04T09:05:42.830Z,17.60
2023-03-04T09:08:10.742Z,16.73
2023-03-04T09:10:38.322Z,16.70
2023-03-04T09:13:06.360Z,16.37
2023-03-04T09:15:37.688Z,15.37
2023-03-04T09:18:06.243Z,17.47
2023-03-04T09:20:33.665Z,17.17
2023-03-04T09:23:01.566Z,15.57
2023-03-04T09:25:35.700Z,14.90
2023-03-04T09:28:04.697Z,16.33
2023-03-04T09:30:32.265Z,15.53
2023-03-04T09:32:59.608Z,16.33
2023-03-04T09:35:28.714Z,17.60
2023-03-04T09:38:02.559Z,15.73
2023-03-04T09:40:34.890Z,14.97
2023-03-04T09:43:03.861Z,15.43
2023-03-04T09:45:38.860Z,15.13
2023-03-04T09:48:07.059Z,16.40
2023-03-04T09:50:41.609Z,15.00
2023-03-04T09:53:21.352Z,15.57
2023-03-04T09:55:51.467Z,16.50
2023-03-04T09:58:40.200Z,14.90
2023-03-04T10:01:30.526Z,15.67
2023-03-04T10:04:01.121Z,15.13
2023-03-04T10:06:29.382Z,15.40
2023-03-04T10:09:17.464Z,15.70
2023-03-04T10:11:49.778Z,15.57
2023-03-04T10:14:23.314Z,14.60
2023-03-04T10:16:55.371Z,15.90
2023-03-04T10:19:25.392Z,15.60
2023-03-04T10:21:53.239Z,15.13
2023-03-04T10:24:22.636Z,14.93
2023-03-04T10:26:52.316Z,14.67
2023-03-04T10:29:22.014Z,14.70
2023-03-04T10:31:49.916Z,14.70
2023-03-04T10:34:19.314Z,14.10
2023-03-04T10:36:52.730Z,13.77
2023-03-04T10:39:22.853Z,14.03
2023-03-04T10:41:59.123Z,13.87
2023-03-04T10:44:29.370Z,13.63
2023-03-04T10:46:58.164Z,14.80
2023-03-04T10:49:30.782Z,14.77
2023-03-04T10:52:16.385Z,15.20
2023-03-04T10:54:49.044Z,16.20
2023-03-04T10:57:17.726Z,15.43
2023-03-04T10:59:51.042Z,15.63
2023-03-04T11:02:23.186Z,15.13
2023-03-04T11:04:52.998Z,15.03
2023-03-04T11:07:21.162Z,14.97
2023-03-04T11:09:48.484Z,16.00
2023-03-04T11:12:16.952Z,15.40
2023-03-04T11:15:04.979Z,15.33
2023-03-04T11:17:50.295Z,15.90
2023-03-04T11:20:36.630Z,15.60
2023-03-04T11:23:19.729Z,14.73
2023-03-04T11:25:50.138Z,14.70
2023-03-04T11:28:27.159Z,14.80
2023-03-04T11:30:57.550Z,15.67
2023-03-04T11:33:44.891Z,14.40
2023-03-04T11:36:33.888Z,15.23
2023-03-04T11:39:03.039Z,15.23
2023-03-04T11:41:35.811Z,14.10
2023-03-04T11:44:07.929Z,13.90
2023-03-04T11:46:55.123Z,14.30
2023-03-04T11:49:26.289Z,14.33
2023-03-04T11:52:00.628Z,15.70
2023-03-04T11:54:36.236Z,15.27
2023-03-04T11:57:23.772Z,14.90
2023-03-04T12:00:17.770Z,14.90
2023-03-04T12:03:17.611Z,15.20
2023-03-04T12:05:51.813Z,16.50
2023-03-04T12:08:27.797Z,14.37
2023-03-04T12:11:10.185Z,15.40
2023-03-04T12:13:40.596Z,15.63
2023-03-04T12:16:20.556Z,16.33
2023-03-04T12:19:27.864Z,14.80
2023-03-04T12:22:19.061Z,16.07
2023-03-04T12:24:56.476Z,17.23
2023-03-04T12:27:23.935Z,17.67
2023-03-04T12:30:08.401Z,17.60
2023-03-04T12:32:46.918Z,17.97
2023-03-04T12:35:40.481Z,18.10
2023-03-04T12:38:29.487Z,19.73
2023-03-04T12:41:01.721Z,17.80
2023-03-04T12:43:36.007Z,16.93
2023-03-04T12:46:21.833Z,16.73
2023-03-04T12:49:11.361Z,15.67
2023-03-04T12:51:44.000Z,15.93
2023-03-04T12:54:26.182Z,15.00
2023-03-04T12:57:07.111Z,14.73
2023-03-04T12:59:44.884Z,15.17
2023-03-04T13:02:35.085Z,14.00
2023-03-04T13:05:10.305Z,13.07
2023-03-04T13:07:47.075Z,15.63
2023-03-04T13:10:17.703Z,14.30
2023-03-04T13:12:53.550Z,13.03
2023-03-04T13:15:40.071Z,12.90
2023-03-04T13:18:19.981Z,13.87
2023-03-04T13:20:48.152Z,12.03
2023-03-04T13:23:16.374Z,12.60
2023-03-04T13:25:44.609Z,12.50
2023-03-04T13:28:13.647Z,12.57
2023-03-04T13:30:42.542Z,12.67
2023-03-04T13:33:32.452Z,12.30
2023-03-04T13:36:04.714Z,11.60
2023-03-04T13:38:39.730Z,11.67
2023-03-04T13:41:14.133Z,12.93
2023-03-04T13:43:45.209Z,5.53
2023-03-04T13:46:34.968Z,4.30
2023-03-04T13:49:08.173Z,5.13
2023-03-04T13:51:43.111Z,4.83
2023-03-04T13:54:16.325Z,5.95
2023-03-04T13:56:48.819Z,5.63
2023-03-04T13:59:58.476Z,5.43
2023-03-04T14:02:27.782Z,3.97
2023-03-04T14:04:59.807Z,4.77
2023-03-04T14:07:29.529Z,3.77
2023-03-04T14:10:06.247Z,3.50
2023-03-04T14:12:42.294Z,3.23
2023-03-04T14:15:22.393Z,3.57
2023-03-04T14:17:54.091Z,2.70
2023-03-04T14:20:34.513Z,2.70
2023-03-04T14:23:32.775Z,2.60
2023-03-04T14:26:06.501Z,2.90
2023-03-04T14:28:33.916Z,2.90
2023-03-04T14:31:04.732Z,3.10
2023-03-04T14:33:32.662Z,3.03
2023-03-04T14:36:04.647Z,3.30
2023-03-04T14:38:40.653Z,3.07
2023-03-04T14:41:10.866Z,2.97
2023-03-04T14:43:42.734Z,3.23
2023-03-04T14:46:16.414Z,2.70
2023-03-04T14:48:51.618Z,2.97
2023-03-04T14:51:38.906Z,2.97
2023-03-04T14:56:53.089Z,2.80
2023-03-04T14:59:31.883Z,2.80
2023-03-04T15:02:17.697Z,2.73
2023-03-04T15:04:46.114Z,2.60
2023-03-04T15:07:20.281Z,2.30
2023-03-04T15:10:00.284Z,2.33
2023-03-04T15:12:33.604Z,2.17
2023-03-04T15:15:04.687Z,2.30
2023-03-04T15:20:33.100Z,1.90
2023-03-04T15:23:03.539Z,1.90
2023-03-04T15:25:31.044Z,1.93
2023-03-04T15:28:02.736Z,1.90
2023-03-04T15:30:37.834Z,1.80
2023-03-04T15:33:08.573Z,2.07
2023-03-04T15:35:37.841Z,1.90
2023-03-04T15:38:10.030Z,1.80
2023-03-04T15:40:54.272Z,1.80
2023-03-04T15:43:23.986Z,1.73
2023-03-04T15:45:52.624Z,1.50
2023-03-04T15:48:24.546Z,1.67
2023-03-04T15:50:52.822Z,2.43
2023-03-04T15:53:26.595Z,2.03
2023-03-04T15:55:55.336Z,1.90
2023-03-04T15:58:23.748Z,1.53
2023-03-04T16:00:51.658Z,1.60
2023-03-04T16:03:19.943Z,1.70
2023-03-04T16:05:50.420Z,1.97
2023-03-04T16:08:21.628Z,2.20
2023-03-04T16:10:54.041Z,2.00
2023-03-04T16:13:25.649Z,1.80
2023-03-04T16:15:56.609Z,1.60
2023-03-04T16:18:26.809Z,1.70
2023-03-04T16:20:57.230Z,1.80
2023-03-04T16:23:25.381Z,1.80
2023-03-04T16:25:59.803Z,2.10
2023-03-04T16:28:28.582Z,1.80
2023-03-04T16:30:57.043Z,1.50
2023-03-04T16:33:24.760Z,1.73
2023-03-04T16:35:53.794Z,1.17
2023-03-04T16:38:32.045Z,1.37
2023-03-04T16:41:05.078Z,1.40
2023-03-04T16:43:35.073Z,1.20
2023-03-04T16:46:06.774Z,1.37
2023-03-04T16:48:35.915Z,1.73
2023-03-04T16:51:13.205Z,2.00
2023-03-04T16:53:41.824Z,1.70
2023-03-04T16:56:20.441Z,1.60
2023-03-04T16:58:49.685Z,1.77
2023-03-04T17:01:27.502Z,1.77
2023-03-04T17:03:55.666Z,1.40
2023-03-04T17:06:23.581Z,1.80
2023-03-04T17:08:51.310Z,1.80
2023-03-04T17:11:22.729Z,2.00
2023-03-04T17:13:50.563Z,2.20
2023-03-04T17:16:18.059Z,4.50
2023-03-04T17:18:46.184Z,2.20
2023-03-04T17:21:14.989Z,1.73
2023-03-04T17:23:42.506Z,2.00
2023-03-04T17:26:11.141Z,1.63
2023-03-04T17:28:38.670Z,1.67
2023-03-04T17:31:18.222Z,1.80
2023-03-04T17:33:55.150Z,1.87
2023-03-04T17:36:22.654Z,1.93
2023-03-04T17:38:52.242Z,1.53
2023-03-04T17:41:23.784Z,1.33
2023-03-04T17:43:54.619Z,1.30
2023-03-04T17:46:25.701Z,1.60
2023-03-04T17:48:56.113Z,1.90
2023-03-04T17:51:38.886Z,1.80
2023-03-04T17:54:12.533Z,1.30
2023-03-04T17:56:41.966Z,1.60
2023-03-04T17:59:10.773Z,1.63
2023-03-04T18:01:41.774Z,1.43
2023-03-04T18:04:13.101Z,1.80
2023-03-04T18:06:41.519Z,1.40
2023-03-04T18:09:12.676Z,1.43
2023-03-04T18:11:42.439Z,1.70
2023-03-04T18:14:12.948Z,1.57
2023-03-04T18:16:44.016Z,1.57
2023-03-04T18:19:11.489Z,1.80
2023-03-04T18:21:40.072Z,1.50
2023-03-04T18:24:13.129Z,2.73
2023-03-04T18:26:43.052Z,2.30
2023-03-04T18:29:12.084Z,1.67
2023-03-04T18:31:41.951Z,1.63
2023-03-04T18:34:19.404Z,1.80
2023-03-04T18:36:48.327Z,3.97
2023-03-04T18:39:19.078Z,1.73
2023-03-04T18:41:53.329Z,1.63
2023-03-04T18:44:20.963Z,1.30
2023-03-04T18:46:51.379Z,1.63
2023-03-04T18:49:19.529Z,1.37
2023-03-04T18:51:47.694Z,1.30
2023-03-04T18:54:16.967Z,1.40
2023-03-04T18:56:47.997Z,1.47
2023-03-04T18:59:26.697Z,1.27
2023-03-04T19:02:01.952Z,1.53
2023-03-04T19:04:31.329Z,1.27
2023-03-04T19:07:00.344Z,1.30
2023-03-04T19:09:33.161Z,1.30
2023-03-04T19:12:03.130Z,1.30
2023-03-04T19:14:34.855Z,1.27
2023-03-04T19:17:12.020Z,1.40
2023-03-04T19:19:40.043Z,1.40
2023-03-04T19:22:08.470Z,1.50
2023-03-04T19:24:38.648Z,1.60
2023-03-04T19:27:12.382Z,1.90
2023-03-04T19:29:42.448Z,2.10
2023-03-04T19:32:13.687Z,2.33
2023-03-04T19:34:48.217Z,2.00
2023-03-04T19:37:17.177Z,2.13
2023-03-04T19:39:46.314Z,2.10
2023-03-04T19:42:14.539Z,2.20
2023-03-04T19:44:44.852Z,2.30
2023-03-04T19:47:15.224Z,1.93
2023-03-04T19:49:44.791Z,2.20
2023-03-04T19:52:12.830Z,1.93
2023-03-04T19:54:43.787Z,1.90
2023-03-04T19:57:13.688Z,1.90
2023-03-04T19:59:41.336Z,2.03
2023-03-04T20:02:13.868Z,2.20
2023-03-04T20:04:43.533Z,2.33
2023-03-04T20:07:11.612Z,2.17
2023-03-04T20:09:42.698Z,1.90
2023-03-04T20:12:10.504Z,2.20
2023-03-04T20:14:39.284Z,1.97
2023-03-04T20:17:08.311Z,1.97
2023-03-04T20:19:36.051Z,1.50
2023-03-04T20:22:03.560Z,1.93
2023-03-04T20:24:30.875Z,1.77
2023-03-04T20:26:58.799Z,2.07
2023-03-04T20:29:27.912Z,1.87
2023-03-04T20:31:58.640Z,1.90
2023-03-04T20:34:27.171Z,2.00
2023-03-04T20:36:54.711Z,2.23
2023-03-04T20:39:30.217Z,2.30
2023-03-04T20:42:04.169Z,2.20
2023-03-04T20:44:31.749Z,2.43
2023-03-04T20:47:01.784Z,2.63
2023-03-04T20:49:29.860Z,2.50
2023-03-04T20:52:11.864Z,2.60
2023-03-04T20:54:42.597Z,2.10
2023-03-04T20:57:30.855Z,2.50
2023-03-04T20:59:59.099Z,2.60
2023-03-04T21:02:26.520Z,2.87
2023-03-04T21:04:58.120Z,2.50
2023-03-04T21:07:28.682Z,2.60
2023-03-04T21:09:57.121Z,2.27
2023-03-04T21:12:24.567Z,2.73
2023-03-04T21:14:52.810Z,2.33
2023-03-04T21:17:23.465Z,2.60
2023-03-04T21:19:53.637Z,2.10
2023-03-04T21:22:21.259Z,2.40
2023-03-04T21:24:59.685Z,2.90
2023-03-04T21:27:29.353Z,2.30
2023-03-04T21:30:03.183Z,2.17
2023-03-04T21:32:30.827Z,2.70
2023-03-04T21:34:58.232Z,2.60
2023-03-04T21:37:27.238Z,2.30
2023-03-04T21:39:55.130Z,2.73
2023-03-04T21:42:22.715Z,2.50
2023-03-04T21:44:56.019Z,2.17
2023-03-04T21:47:35.216Z,2.30
2023-03-04T21:50:03.556Z,2.70
2023-03-04T21:52:34.173Z,2.57
2023-03-04T21:55:01.567Z,2.40
2023-03-04T21:57:34.265Z,2.57
2023-03-04T22:00:03.764Z,2.80
2023-03-04T22:02:39.243Z,2.37
2023-03-04T22:05:08.499Z,2.77
2023-03-04T22:07:44.734Z,3.03
2023-03-04T22:10:15.122Z,2.47
2023-03-04T22:12:47.477Z,2.87
2023-03-04T22:15:17.694Z,2.70
2023-03-04T22:17:53.756Z,2.40
2023-03-04T22:20:25.996Z,2.17
2023-03-04T22:22:55.090Z,1.87
2023-03-04T22:25:38.340Z,2.03
2023-03-04T22:28:06.262Z,2.20
2023-03-04T22:30:33.972Z,2.70
2023-03-04T22:33:01.893Z,2.17
2023-03-04T22:35:31.395Z,2.40
2023-03-04T22:38:06.500Z,2.63
2023-03-04T22:40:34.357Z,3.00
2023-03-04T22:43:01.720Z,2.37
2023-03-04T22:45:31.096Z,2.17
2023-03-04T22:47:58.450Z,2.23
2023-03-04T22:50:26.010Z,2.20
2023-03-04T22:52:53.626Z,2.57
2023-03-04T22:55:22.092Z,2.50
2023-03-04T22:57:50.627Z,2.17
2023-03-04T23:00:20.892Z,2.40
2023-03-04T23:02:50.767Z,2.30
2023-03-04T23:05:21.189Z,2.20
2023-03-04T23:07:50.868Z,2.40
2023-03-04T23:10:22.667Z,2.77
2023-03-04T23:12:51.143Z,2.60
2023-03-04T23:15:20.744Z,2.90
2023-03-04T23:17:52.403Z,2.70
2023-03-04T23:20:27.851Z,2.77
2023-03-04T23:22:57.803Z,2.60
2023-03-04T23:25:37.583Z,2.90
2023-03-04T23:28:06.021Z,3.57
2023-03-04T23:30:39.415Z,2.80
2023-03-04T23:33:06.851Z,3.13
2023-03-04T23:35:34.154Z,3.40
2023-03-04T23:38:04.081Z,3.30
2023-03-04T23:40:31.389Z,3.57
2023-03-04T23:42:58.663Z,4.23
2023-03-04T23:45:26.136Z,3.77
2023-03-04T23:47:53.448Z,3.73
2023-03-04T23:50:20.948Z,4.07
2023-03-04T23:52:49.923Z,4.03
2023-03-04T23:55:18.554Z,3.77
2023-03-04T23:57:46.710Z,4.00
